createdAt,value
2023-05-10T00:00:17.752Z,9.17
2023-05-10T00:03:23.886Z,9.33
2023-05-10T00:06:27.160Z,9.43
2023-05-10T00:09:30.167Z,9.33
2023-05-10T00:12:33.235Z,8.63
2023-05-10T00:15:36.668Z,8.57
2023-05-10T00:18:41.233Z,8.00
2023-05-10T00:21:44.286Z,8.40
2023-05-10T00:24:47.336Z,7.80
2023-05-10T00:27:50.601Z,8.47
2023-05-10T00:30:53.679Z,8.23
2023-05-10T00:33:58.352Z,8.53
2023-05-10T00:37:01.405Z,8.10
2023-05-10T00:40:04.521Z,7.70
2023-05-10T00:43:07.572Z,8.20
2023-05-10T00:46:10.679Z,7.70
2023-05-10T00:49:15.290Z,6.87
2023-05-10T00:52:18.432Z,8.20
2023-05-10T00:55:22.613Z,7.50
2023-05-10T00:58:29.209Z,6.70
2023-05-10T01:01:33.334Z,7.00
2023-05-10T01:04:38.294Z,6.70
2023-05-10T01:07:42.195Z,6.90
2023-05-10T01:10:46.657Z,6.77
2023-05-10T01:13:54.905Z,6.83
2023-05-10T01:16:58.433Z,5.93
2023-05-10T01:20:02.997Z,6.40
2023-05-10T01:23:33.137Z,6.50
2023-05-10T01:27:00.540Z,5.90
2023-05-10T01:30:41.519Z,6.10
2023-05-10T01:33:51.743Z,5.97
2023-05-10T01:37:00.787Z,6.50
2023-05-10T01:40:12.552Z,5.43
2023-05-10T01:43:19.904Z,5.53
2023-05-10T01:46:29.576Z,6.40
2023-05-10T01:49:42.036Z,5.40
2023-05-10T01:52:47.018Z,5.10
2023-05-10T01:55:53.466Z,5.10
2023-05-10T01:58:59.018Z,5.10
2023-05-10T02:02:04.251Z,5.30
2023-05-10T02:05:10.398Z,5.10
2023-05-10T02:08:14.513Z,4.73
2023-05-10T02:11:19.754Z,4.90
2023-05-10T02:14:25.515Z,4.70
2023-05-10T02:17:29.825Z,5.17
2023-05-10T02:20:35.546Z,5.23
2023-05-10T02:23:40.365Z,4.87
2023-05-10T02:26:45.692Z,4.60
2023-05-10T02:29:49.496Z,4.70
2023-05-10T02:32:53.782Z,4.30
2023-05-10T02:35:58.908Z,4.80
2023-05-10T02:39:04.140Z,4.60
2023-05-10T02:42:07.837Z,4.50
2023-05-10T02:45:15.554Z,4.53
2023-05-10T02:48:19.099Z,4.40
2023-05-10T02:51:27.361Z,4.23
2023-05-10T02:54:35.454Z,4.70
2023-05-10T02:57:43.068Z,5.80
2023-05-10T03:00:46.352Z,4.37
2023-05-10T03:03:49.439Z,4.77
2023-05-10T03:06:54.231Z,4.80
2023-05-10T03:09:57.400Z,4.73
2023-05-10T03:13:13.702Z,4.40
2023-05-10T03:16:19.221Z,4.87
2023-05-10T03:19:28.664Z,5.93
2023-05-10T03:22:36.581Z,5.90
2023-05-10T03:25:42.010Z,9.03
2023-05-10T03:28:45.967Z,8.70
2023-05-10T03:31:49.241Z,7.70
2023-05-10T03:34:52.598Z,8.67
2023-05-10T03:37:57.071Z,8.70
2023-05-10T03:41:00.094Z,15.73
2023-05-10T03:44:03.383Z,10.43
2023-05-10T03:47:06.581Z,8.70
2023-05-10T03:50:11.337Z,9.80
2023-05-10T03:53:15.819Z,11.07
2023-05-10T03:56:18.941Z,16.80
2023-05-10T03:59:21.972Z,16.17
2023-05-10T04:02:25.277Z,14.90
2023-05-10T04:05:28.486Z,18.37
2023-05-10T04:08:33.426Z,13.67
2023-05-10T04:11:36.468Z,13.07
2023-05-10T04:14:39.566Z,13.57
2023-05-10T04:17:42.651Z,12.83
2023-05-10T04:20:45.793Z,11.50
2023-05-10T04:23:50.300Z,12.30
2023-05-10T04:26:53.861Z,12.90
2023-05-10T04:29:57.752Z,10.73
2023-05-10T04:33:00.972Z,11.20
2023-05-10T04:36:04.444Z,10.33
2023-05-10T04:39:09.519Z,10.73
2023-05-10T04:42:12.856Z,9.10
2023-05-10T04:45:16.726Z,9.90
2023-05-10T04:48:19.747Z,9.73
2023-05-10T04:51:22.839Z,9.97
2023-05-10T04:54:27.492Z,8.43
2023-05-10T04:57:30.490Z,8.50
2023-05-10T05:00:33.603Z,8.07
2023-05-10T05:03:36.776Z,9.47
2023-05-10T05:06:39.843Z,8.10
2023-05-10T05:09:44.282Z,8.00
2023-05-10T05:12:47.382Z,8.07
2023-05-10T05:15:50.431Z,8.73
2023-05-10T05:18:53.503Z,7.40
2023-05-10T05:21:56.473Z,6.80
2023-05-10T05:25:01.639Z,6.43
2023-05-10T05:28:04.672Z,7.23
2023-05-10T05:31:08.775Z,7.73
2023-05-10T05:34:11.993Z,7.50
2023-05-10T05:37:16.334Z,6.40
2023-05-10T05:40:21.482Z,6.70
2023-05-10T05:43:24.856Z,6.43
2023-05-10T05:46:27.898Z,6.00
2023-05-10T05:49:31.056Z,5.70
2023-05-10T05:52:34.129Z,5.90
2023-05-10T05:55:38.650Z,6.40
2023-05-10T05:58:41.909Z,5.80
2023-05-10T06:01:44.924Z,5.43
2023-05-10T06:04:47.995Z,5.80
2023-05-10T06:07:51.075Z,6.70
2023-05-10T06:10:55.496Z,5.90
2023-05-10T06:13:58.504Z,5.80
2023-05-10T06:17:02.082Z,7.87
2023-05-10T06:20:06.336Z,5.10
2023-05-10T06:23:09.415Z,5.57
2023-05-10T06:26:14.895Z,5.00
2023-05-10T06:29:17.974Z,5.03
2023-05-10T06:32:21.053Z,5.03
2023-05-10T06:35:24.272Z,5.00
2023-05-10T06:38:27.445Z,5.63
2023-05-10T06:41:31.919Z,4.33
2023-05-10T06:44:34.974Z,4.30
2023-05-10T06:47:39.201Z,4.93
2023-05-10T06:50:42.644Z,4.70
2023-05-10T06:53:45.681Z,4.83
2023-05-10T06:56:50.284Z,4.40
2023-05-10T06:59:54.120Z,3.90
2023-05-10T07:02:57.229Z,4.30
2023-05-10T07:06:05.436Z,4.70
2023-05-10T07:09:08.741Z,4.53
2023-05-10T07:12:15.302Z,4.80
2023-05-10T07:15:19.467Z,4.67
2023-05-10T07:18:22.702Z,4.23
2023-05-10T07:21:26.329Z,4.50
2023-05-10T07:24:29.366Z,4.80
2023-05-10T07:27:33.833Z,8.07
2023-05-10T07:30:37.219Z,7.83
2023-05-10T07:33:40.987Z,7.47
2023-05-10T07:36:44.011Z,7.33
2023-05-10T07:39:47.084Z,8.70
2023-05-10T07:42:51.569Z,12.57
2023-05-10T07:45:56.273Z,11.67
2023-05-10T07:48:59.695Z,10.70
2023-05-10T07:52:02.748Z,12.10
2023-05-10T07:55:06.498Z,10.20
2023-05-10T07:58:10.957Z,10.33
2023-05-10T08:01:14.093Z,9.27
2023-05-10T08:04:17.166Z,10.47
2023-05-10T08:07:20.303Z,10.37
2023-05-10T08:10:23.302Z,9.77
2023-05-10T08:13:27.960Z,9.73
2023-05-10T08:16:31.084Z,11.20
2023-05-10T08:19:34.148Z,10.67
2023-05-10T08:22:37.313Z,10.20
2023-05-10T08:25:40.338Z,10.23
2023-05-10T08:28:44.838Z,10.07
2023-05-10T08:31:47.975Z,9.60
2023-05-10T08:34:50.989Z,8.87
2023-05-10T08:37:54.025Z,9.70
2023-05-10T08:40:59.731Z,9.93
2023-05-10T08:44:07.233Z,9.07
2023-05-10T08:47:12.581Z,8.73
2023-05-10T08:50:17.317Z,9.53
2023-05-10T08:53:22.180Z,21.30
2023-05-10T08:56:25.563Z,12.40
2023-05-10T08:59:30.608Z,12.80
2023-05-10T09:02:33.748Z,12.23
2023-05-10T09:05:38.467Z,12.23
2023-05-10T09:08:43.892Z,11.00
2023-05-10T09:11:47.322Z,11.43
2023-05-10T09:14:52.921Z,10.63
2023-05-10T09:17:57.397Z,10.33
2023-05-10T09:21:00.487Z,10.43
2023-05-10T09:24:06.272Z,10.10
2023-05-10T09:27:09.270Z,9.40
2023-05-10T09:30:18.190Z,9.30
2023-05-10T09:33:21.312Z,9.37
2023-05-10T09:36:24.305Z,9.13
2023-05-10T09:39:34.169Z,8.77
2023-05-10T09:42:37.298Z,8.60
2023-05-10T09:45:43.607Z,8.80
2023-05-10T09:48:48.224Z,8.33
2023-05-10T09:52:03.539Z,8.40
2023-05-10T09:55:07.287Z,7.63
2023-05-10T09:58:12.032Z,8.47
2023-05-10T10:01:16.684Z,8.37
2023-05-10T10:04:19.847Z,6.77
2023-05-10T10:07:26.593Z,7.70
2023-05-10T10:10:30.626Z,6.67
2023-05-10T10:13:34.315Z,7.03
2023-05-10T10:16:48.450Z,8.20
2023-05-10T10:19:55.050Z,7.33
2023-05-10T10:22:58.148Z,7.63
2023-05-10T10:26:01.990Z,6.87
2023-05-10T10:29:18.617Z,8.07
2023-05-10T10:32:31.817Z,7.90
2023-05-10T10:35:35.396Z,7.73
2023-05-10T10:38:40.754Z,6.57
2023-05-10T10:41:52.284Z,7.77
2023-05-10T10:45:14.211Z,7.20
2023-05-10T10:48:25.934Z,7.17
2023-05-10T10:51:32.279Z,6.17
2023-05-10T10:54:35.289Z,6.57
2023-05-10T10:57:49.786Z,5.53
2023-05-10T11:01:11.012Z,6.73
2023-05-10T11:04:22.662Z,6.63
2023-05-10T11:07:25.823Z,6.13
2023-05-10T11:10:29.810Z,5.80
2023-05-10T11:13:34.835Z,5.30
2023-05-10T11:16:44.064Z,5.83
2023-05-10T11:20:08.595Z,6.83
2023-05-10T11:23:17.008Z,5.20
2023-05-10T11:26:24.201Z,5.60
2023-05-10T11:29:27.704Z,5.70
2023-05-10T11:32:31.678Z,6.23
2023-05-10T11:35:43.145Z,6.07
2023-05-10T11:38:46.807Z,5.17
2023-05-10T11:41:51.323Z,5.77
2023-05-10T11:44:54.546Z,4.87
2023-05-10T11:47:59.054Z,5.87
2023-05-10T11:51:04.750Z,5.37
2023-05-10T11:54:10.193Z,5.40
2023-05-10T11:57:13.284Z,4.63
2023-05-10T12:00:17.276Z,5.20
2023-05-10T12:03:21.060Z,4.90
2023-05-10T12:06:29.106Z,4.73
2023-05-10T12:09:43.372Z,5.33
2023-05-10T12:12:48.566Z,5.20
2023-05-10T12:15:51.636Z,4.70
2023-05-10T12:18:56.187Z,5.53
2023-05-10T12:22:01.202Z,4.30
2023-05-10T12:25:05.300Z,5.57
2023-05-10T12:28:09.716Z,5.10
2023-05-10T12:31:12.942Z,5.70
2023-05-10T12:34:25.594Z,5.10
2023-05-10T12:37:31.573Z,5.53
2023-05-10T12:40:34.639Z,4.73
2023-05-10T12:43:38.633Z,6.63
2023-05-10T12:46:41.621Z,4.90
2023-05-10T12:49:44.759Z,5.17
2023-05-10T12:52:49.180Z,4.97
2023-05-10T12:55:52.228Z,4.73
2023-05-10T12:58:55.270Z,5.23
2023-05-10T13:01:59.467Z,4.97
2023-05-10T13:05:02.604Z,4.73
2023-05-10T13:08:07.484Z,5.10
2023-05-10T13:11:10.552Z,4.30
2023-05-10T13:14:14.386Z,4.57
2023-05-10T13:17:17.430Z,4.97
2023-05-10T13:20:20.625Z,4.67
2023-05-10T13:23:25.087Z,4.93
2023-05-10T13:26:28.108Z,4.33
2023-05-10T13:29:31.121Z,4.03
2023-05-10T13:32:34.892Z,4.80
2023-05-10T13:35:37.982Z,4.57
2023-05-10T13:38:42.458Z,4.80
2023-05-10T13:41:45.479Z,4.37
2023-05-10T13:44:48.538Z,4.60
2023-05-10T13:47:51.627Z,4.30
2023-05-10T13:50:54.705Z,4.20
2023-05-10T13:53:59.092Z,4.00
2023-05-10T13:57:02.290Z,4.03
2023-05-10T14:00:06.462Z,4.40
2023-05-10T14:03:12.096Z,3.93
2023-05-10T14:06:15.539Z,4.47
2023-05-10T14:09:22.621Z,3.90
2023-05-10T14:12:25.663Z,4.50
2023-05-10T14:15:28.927Z,4.00
2023-05-10T14:18:32.188Z,4.33
2023-05-10T14:21:35.595Z,4.23
2023-05-10T14:24:40.472Z,4.27
2023-05-10T14:27:43.552Z,4.00
2023-05-10T14:30:46.659Z,4.20
2023-05-10T14:33:49.869Z,4.63
2023-05-10T14:36:52.956Z,3.70
2023-05-10T14:39:57.412Z,4.00
2023-05-10T14:43:00.484Z,3.60
2023-05-10T14:46:03.769Z,3.40
2023-05-10T14:49:06.818Z,3.70
2023-05-10T14:52:09.881Z,3.97
2023-05-10T14:55:14.451Z,4.20
2023-05-10T14:58:17.537Z,4.20
2023-05-10T15:01:20.668Z,3.97
2023-05-10T15:04:25.452Z,4.20
2023-05-10T15:07:30.170Z,5.77
2023-05-10T15:10:34.647Z,7.00
2023-05-10T15:13:37.707Z,8.13
2023-05-10T15:16:40.747Z,7.63
2023-05-10T15:19:43.902Z,7.73
2023-05-10T15:22:46.929Z,7.03
2023-05-10T15:25:51.431Z,7.43
2023-05-10T15:28:55.311Z,7.37
2023-05-10T15:31:58.284Z,7.63
2023-05-10T15:35:01.788Z,8.17
2023-05-10T15:38:04.758Z,9.93
2023-05-10T15:41:09.095Z,10.67
2023-05-10T15:44:12.100Z,10.13
2023-05-10T15:47:15.081Z,10.13
2023-05-10T15:50:18.416Z,10.77
2023-05-10T15:53:21.525Z,9.77
2023-05-10T15:56:26.825Z,8.67
2023-05-10T15:59:29.862Z,8.53
2023-05-10T16:02:33.068Z,8.27
2023-05-10T16:05:36.204Z,9.37
2023-05-10T16:08:39.276Z,8.63
2023-05-10T16:11:44.341Z,8.33
2023-05-10T16:14:47.683Z,7.73
2023-05-10T16:17:51.235Z,8.50
2023-05-10T16:20:54.714Z,8.10
2023-05-10T16:23:57.940Z,7.93
2023-05-10T16:27:03.205Z,7.93
2023-05-10T16:30:07.644Z,7.40
2023-05-10T16:33:10.681Z,7.00
2023-05-10T16:36:13.741Z,8.70
2023-05-10T16:39:16.731Z,7.47
2023-05-10T16:42:21.153Z,7.30
2023-05-10T16:45:24.620Z,7.40
2023-05-10T16:48:27.613Z,7.00
2023-05-10T16:51:30.745Z,7.33
2023-05-10T16:54:33.821Z,6.30
2023-05-10T16:57:38.319Z,10.77
2023-05-10T17:00:41.436Z,11.37
2023-05-10T17:03:44.759Z,12.80
2023-05-10T17:06:48.012Z,10.77
2023-05-10T17:09:51.043Z,10.80
2023-05-10T17:12:55.503Z,12.17
2023-05-10T17:15:59.080Z,10.67
2023-05-10T17:19:02.199Z,11.83
2023-05-10T17:22:05.298Z,9.43
2023-05-10T17:25:09.301Z,11.17
2023-05-10T17:28:13.843Z,10.10
2023-05-10T17:31:17.165Z,10.93
2023-05-10T17:34:20.251Z,12.83
2023-05-10T17:37:23.311Z,13.47
2023-05-10T17:40:26.271Z,18.30
2023-05-10T17:43:30.677Z,14.77
2023-05-10T17:46:33.676Z,13.73
2023-05-10T17:49:36.851Z,15.33
2023-05-10T17:52:39.956Z,13.57
2023-05-10T17:55:43.900Z,12.77
2023-05-10T17:58:48.338Z,11.53
2023-05-10T18:01:51.387Z,11.77
2023-05-10T18:04:55.186Z,11.20
2023-05-10T18:07:59.844Z,10.57
2023-05-10T18:11:02.907Z,10.17
2023-05-10T18:14:07.277Z,10.00
2023-05-10T18:17:11.029Z,9.20
2023-05-10T18:20:14.282Z,8.47
2023-05-10T18:23:17.278Z,9.23
2023-05-10T18:26:20.311Z,8.43
2023-05-10T18:29:24.727Z,8.00
2023-05-10T18:32:28.019Z,9.53
2023-05-10T18:35:31.090Z,8.37
2023-05-10T18:38:34.225Z,7.40
2023-05-10T18:41:37.415Z,7.40
2023-05-10T18:44:41.847Z,7.80
2023-05-10T18:47:45.057Z,7.30
2023-05-10T18:50:48.578Z,7.33
2023-05-10T18:53:51.793Z,6.27
2023-05-10T18:56:54.831Z,6.43
2023-05-10T18:59:59.230Z,6.27
2023-05-10T19:03:02.349Z,6.00
2023-05-10T19:06:05.517Z,6.10
2023-05-10T19:09:09.919Z,6.27
2023-05-10T19:12:12.996Z,7.90
2023-05-10T19:15:19.221Z,7.10
2023-05-10T19:18:24.476Z,7.90
2023-05-10T19:21:27.856Z,6.90
2023-05-10T19:24:31.038Z,6.70
2023-05-10T19:27:34.171Z,6.43
2023-05-10T19:30:38.631Z,5.53
2023-05-10T19:33:41.694Z,6.10
2023-05-10T19:36:44.999Z,6.73
2023-05-10T19:39:48.118Z,7.70
2023-05-10T19:42:51.324Z,8.50
2023-05-10T19:45:56.082Z,8.20
2023-05-10T19:48:59.180Z,7.33
2023-05-10T19:52:02.238Z,8.40
2023-05-10T19:55:05.937Z,9.30
2023-05-10T19:58:09.079Z,7.80
2023-05-10T20:01:13.817Z,8.77
2023-05-10T20:04:16.945Z,8.97
2023-05-10T20:07:20.013Z,9.97
2023-05-10T20:10:25.184Z,10.53
2023-05-10T20:13:29.990Z,10.60
2023-05-10T20:16:34.498Z,11.40
2023-05-10T20:19:37.640Z,11.60
2023-05-10T20:22:41.088Z,12.00
2023-05-10T20:25:44.467Z,12.13
2023-05-10T20:28:47.512Z,11.47
2023-05-10T20:31:52.055Z,12.97
2023-05-10T20:34:55.441Z,12.43
2023-05-10T20:38:00.073Z,10.10
2023-05-10T20:41:03.127Z,12.27
2023-05-10T20:44:06.768Z,11.23
2023-05-10T20:47:11.368Z,11.57
2023-05-10T20:50:14.589Z,11.23
2023-05-10T20:53:18.557Z,11.40
2023-05-10T20:56:21.834Z,9.50
2023-05-10T20:59:24.926Z,11.17
2023-05-10T21:02:29.484Z,10.70
2023-05-10T21:05:32.717Z,11.47
2023-05-10T21:08:35.941Z,10.47
2023-05-10T21:11:39.482Z,9.60
2023-05-10T21:14:43.174Z,9.67
2023-05-10T21:17:47.719Z,9.53
2023-05-10T21:20:50.759Z,9.20
2023-05-10T21:23:53.784Z,9.30
2023-05-10T21:26:56.844Z,9.33
2023-05-10T21:29:59.953Z,9.33
2023-05-10T21:33:04.603Z,8.67
2023-05-10T21:36:08.586Z,9.53
2023-05-10T21:39:12.206Z,8.63
2023-05-10T21:42:15.328Z,8.43
2023-05-10T21:45:18.909Z,8.20
2023-05-10T21:48:23.407Z,8.73
2023-05-10T21:51:26.415Z,8.17
2023-05-10T21:54:29.234Z,7.90
2023-05-10T21:57:32.959Z,7.93
2023-05-10T22:00:36.115Z,8.00
2023-05-10T22:03:40.633Z,7.80
2023-05-10T22:06:44.266Z,8.23
2023-05-10T22:09:47.440Z,8.03
2023-05-10T22:12:50.526Z,7.73
2023-05-10T22:15:53.648Z,8.43
2023-05-10T22:18:58.242Z,7.40
2023-05-10T22:22:01.408Z,7.77
2023-05-10T22:25:04.663Z,7.90
2023-05-10T22:28:09.339Z,7.20
2023-05-10T22:31:12.823Z,7.70
2023-05-10T22:34:17.335Z,7.70
2023-05-10T22:37:20.409Z,7.70
2023-05-10T22:40:23.488Z,8.10
2023-05-10T22:43:26.546Z,8.40
2023-05-10T22:46:30.450Z,6.77
2023-05-10T22:49:35.048Z,7.20
2023-05-10T22:52:39.449Z,7.47
2023-05-10T22:55:42.652Z,7.57
2023-05-10T22:58:45.803Z,8.03
2023-05-10T23:01:49.305Z,7.47
2023-05-10T23:04:53.768Z,6.80
2023-05-10T23:07:56.902Z,7.83
2023-05-10T23:11:00.007Z,7.07
2023-05-10T23:14:03.133Z,8.03
2023-05-10T23:17:06.329Z,7.20
2023-05-10T23:20:12.427Z,7.13
2023-05-10T23:23:15.842Z,8.07
2023-05-10T23:26:18.847Z,8.00
2023-05-10T23:29:22.001Z,8.33
2023-05-10T23:32:25.082Z,7.50
2023-05-10T23:35:29.587Z,8.10
2023-05-10T23:38:32.629Z,7.33
2023-05-10T23:41:35.731Z,7.53
2023-05-10T23:44:38.804Z,8.37
2023-05-10T23:47:42.030Z,8.30
2023-05-10T23:50:47.169Z,8.43
2023-05-10T23:53:50.268Z,7.93
2023-05-10T23:56:53.423Z,8.47
2023-05-10T23:59:56.457Z,7.47
